Eikamaru No.2 — JD3056 — position and weather

sailwx.info

Track history (hours):
 
Tides and Currents Weather Stations Pressure Air Temp Water Temp Dewpoint Dewpoint Depression Visibility Wind Speed Wind Dir Waves Ship Positions

Eikamaru No.2

Last reported at 2017-Feb-20 23:16 UTC. Time now 2017-Feb-21 01:17 UTC.
Position N 35°33' E 140°05'.

Length 60 m; draft 3.3 m.

Type: Tanker. MMSI: 431001342.

Date/timePositionNaut miles runAvg speedWind from/ knotsBaromVisibWave heightAir tempDewpointWater temp
2017-Feb-20 23:16N 35°33' E 140°05'3 0.3
2017-Feb-20 15:26N 35°33' E 140°02'0 0.0
2017-Feb-20 12:33N 35°33' E 140°02'0 0.0
2017-Feb-20 10:30N 35°33' E 140°02'1 0.2
2017-Feb-20 06:31N 35°33' E 140°01'1011.0
2017-Feb-20 05:34N 35°30' E 139°48'3 2.6
2017-Feb-20 04:33N 35°32' E 139°46'0 0.0
2017-Feb-20 03:33N 35°32' E 139°46'0 0.0
2017-Feb-20 02:33N 35°32' E 139°46'0 0.0
2017-Feb-20 01:34N 35°32' E 139°46'0 0.0
2017-Feb-20 00:33N 35°32' E 139°46'2 1.6
2017-Feb-19 23:33N 35°30' E 139°47'3 2.8
2017-Feb-19 22:34N 35°30' E 139°50'0 0.0
2017-Feb-19 21:33N 35°30' E 139°50'0 0.1
2017-Feb-19 20:33N 35°30' E 139°50'0 0.0
2017-Feb-19 19:33N 35°30' E 139°50'0 0.0
2017-Feb-19 18:33N 35°30' E 139°50'0 0.0
2017-Feb-19 17:33N 35°30' E 139°50'0 0.1
2017-Feb-19 16:33N 35°30' E 139°50'0 0.0
2017-Feb-19 15:34N 35°30' E 139°50'0 0.1
2017-Feb-19 14:33N 35°30' E 139°50'0 0.1
2017-Feb-19 13:34N 35°30' E 139°50'0 0.0
2017-Feb-19 12:34N 35°30' E 139°50'0 0.0
2017-Feb-19 11:34N 35°30' E 139°50'0 0.0
2017-Feb-19 10:34N 35°30' E 139°50'0 0.0
2017-Feb-19 09:34N 35°30' E 139°50'0 0.0
2017-Feb-19 08:33N 35°30' E 139°50'0 0.1
2017-Feb-19 07:33N 35°30' E 139°50'0 0.0
2017-Feb-19 06:34N 35°30' E 139°50'0 0.0
2017-Feb-19 05:34N 35°30' E 139°50'0 0.0
2017-Feb-19 04:33N 35°30' E 139°50'7 7.2
2017-Feb-19 03:32N 35°27' E 139°58'0 0.0
2017-Feb-19 02:33N 35°27' E 139°58'6 6.3
2017-Feb-19 01:32N 35°30' E 139°51'5 5.4
2017-Feb-19 00:33N 35°32' E 139°45'0 0.0
2017-Feb-18 23:34N 35°32' E 139°45'1 1.2
2017-Feb-18 22:33N 35°31' E 139°46'6 5.8
2017-Feb-18 21:34N 35°27' E 139°40'0 0.5
2017-Feb-18 20:34N 35°27' E 139°40'0 0.0
2017-Feb-18 19:34N 35°27' E 139°40'0 0.0
2017-Feb-18 18:33N 35°27' E 139°40'0 0.0
2017-Feb-18 17:33N 35°27' E 139°40'0 0.0
2017-Feb-18 16:34N 35°27' E 139°40'0 0.0
2017-Feb-18 15:34N 35°27' E 139°40'0 0.0
2017-Feb-18 14:34N 35°27' E 139°40'0 0.0
2017-Feb-18 13:34N 35°27' E 139°40'0 0.0
2017-Feb-18 12:34N 35°27' E 139°40'0 0.0
2017-Feb-18 11:33N 35°27' E 139°40'0 0.0
2017-Feb-18 10:33N 35°27' E 139°40'0 0.0
2017-Feb-18 09:34N 35°27' E 139°40'0 0.0
2017-Feb-18 08:33N 35°27' E 139°40'0 0.0
2017-Feb-18 07:34N 35°27' E 139°40'0 0.0
2017-Feb-18 06:34N 35°27' E 139°40'0 0.0
2017-Feb-18 05:34N 35°27' E 139°40'0 0.0
2017-Feb-18 04:33N 35°27' E 139°40'7 6.6
2017-Feb-18 03:34N 35°28' E 139°48'6 5.6
2017-Feb-18 02:33N 35°28' E 139°55'0 0.0
2017-Feb-18 01:27N 35°28' E 139°55'0 0.0
2017-Feb-18 00:33N 35°28' E 139°55'0 0.0
2017-Feb-17 23:34N 35°28' E 139°55'0 0.0
2017-Feb-17 22:33N 35°28' E 139°55'0 0.0
2017-Feb-17 21:34N 35°28' E 139°55'0 0.0
2017-Feb-17 20:33N 35°28' E 139°55'0 0.0
2017-Feb-17 19:33N 35°28' E 139°55'0 0.0
2017-Feb-17 18:33N 35°28' E 139°55'0 0.0
2017-Feb-17 17:34N 35°28' E 139°55'0 0.0
2017-Feb-17 16:33N 35°28' E 139°55'0 0.0
2017-Feb-17 15:33N 35°28' E 139°55'0 0.0
2017-Feb-17 14:33N 35°28' E 139°55'0 0.0
2017-Feb-17 13:34N 35°28' E 139°55'0 0.0
2017-Feb-17 12:28N 35°28' E 139°55'0 0.1
2017-Feb-17 11:33N 35°28' E 139°55'0 0.0
2017-Feb-17 10:27N 35°28' E 139°55'0 0.0
2017-Feb-17 09:33N 35°28' E 139°55'0 0.0
2017-Feb-17 08:05N 35°28' E 139°55'0 0.0
2017-Feb-17 07:29N 35°28' E 139°55'0 0.0
2017-Feb-17 06:16N 35°28' E 139°55'0 0.0
2017-Feb-17 05:32N 35°28' E 139°55'0 0.0
2017-Feb-17 03:32N 35°28' E 139°55'2 1.5
2017-Feb-17 02:31N 35°30' E 139°54'7 7.8
2017-Feb-17 01:34N 35°32' E 139°45'0 0.1
2017-Feb-17 00:33N 35°32' E 139°45'0 0.0
2017-Feb-16 23:33N 35°32' E 139°45'0 0.0
2017-Feb-16 22:33N 35°32' E 139°45'4 3.8
2017-Feb-16 21:33N 35°29' E 139°49'0 0.0
2017-Feb-16 20:33N 35°29' E 139°49'0 0.0
2017-Feb-16 19:33N 35°29' E 139°49'0 0.0
2017-Feb-16 18:33N 35°29' E 139°49'0 0.0
2017-Feb-16 17:33N 35°29' E 139°49'0 0.0
2017-Feb-16 16:33N 35°29' E 139°49'0 0.0
2017-Feb-16 15:33N 35°29' E 139°49'0 0.0
2017-Feb-16 14:33N 35°29' E 139°49'0 0.0
2017-Feb-16 13:33N 35°29' E 139°49'0 0.1
2017-Feb-16 12:34N 35°29' E 139°49'0 0.0
2017-Feb-16 11:33N 35°29' E 139°49'0 0.0
2017-Feb-16 10:34N 35°29' E 139°49'0 0.0
2017-Feb-16 09:33N 35°29' E 139°49'0 0.0
2017-Feb-16 08:34N 35°29' E 139°49'0 0.0
2017-Feb-16 07:34N 35°29' E 139°49'6 5.9
2017-Feb-16 06:34N 35°24' E 139°46'1110.6
2017-Feb-16 05:34N 35°13' E 139°47'243 9.3
2017-Feb-15 03:33N 34°06' E 135°03'2310.8
2017-Feb-15 01:28N 34°28' E 135°11'1011.1
2017-Feb-15 00:33N 34°37' E 135°17'3 2.8
2017-Feb-14 23:33N 34°40' E 135°18'0 0.1
2017-Feb-14 22:33N 34°40' E 135°18'2 1.6
2017-Feb-14 21:32N 34°39' E 135°19'0 0.1
2017-Feb-14 20:33N 34°39' E 135°19'0 0.0
2017-Feb-14 19:33N 34°39' E 135°19'0 0.0
2017-Feb-14 18:33N 34°39' E 135°19'0 0.1
2017-Feb-14 17:33N 34°39' E 135°19'0 0.1
2017-Feb-14 16:33N 34°39' E 135°19'0 0.1
2017-Feb-14 15:33N 34°39' E 135°19'2 2.0
2017-Feb-14 14:33N 34°37' E 135°17'1110.7
2017-Feb-14 13:33N 34°35' E 135°05'123 3.8
2017-Feb-13 05:20N 34°05' E 132°40'910.7
2017-Feb-13 04:30N 34°03' E 132°30'7 0.7
2017-Feb-12 19:17N 34°07' E 132°23'810.6
2017-Feb-12 18:31N 34°03' E 132°31'1111.3
2017-Feb-12 17:33N 34°07' E 132°44'11810.5
2017-Feb-12 06:20N 34°37' E 135°01'6 7.5
2017-Feb-12 05:32N 34°35' E 135°08'1010.6
2017-Feb-12 04:33N 34°33' E 135°20'4 3.8
2017-Feb-12 03:32N 34°32' E 135°25'0 0.0
2017-Feb-12 02:33N 34°32' E 135°25'0 0.0
2017-Feb-12 00:32N 34°32' E 135°25'0 0.0
2017-Feb-11 23:33N 34°32' E 135°25'4 4.0
2017-Feb-11 22:30N 34°32' E 135°20'0 0.0
2017-Feb-11 21:31N 34°32' E 135°20'0 0.0
2017-Feb-11 20:34N 34°32' E 135°20'0 0.0
2017-Feb-11 19:31N 34°32' E 135°20'0 0.0
2017-Feb-11 18:33N 34°32' E 135°20'0 0.0
2017-Feb-11 17:33N 34°32' E 135°20'0 0.0
2017-Feb-11 16:32N 34°32' E 135°20'0 0.0
2017-Feb-11 15:29N 34°32' E 135°20'0 0.1
2017-Feb-11 14:32N 34°32' E 135°20'0 0.1
2017-Feb-11 13:33N 34°32' E 135°20'0 0.0
2017-Feb-11 12:23N 34°32' E 135°20'0 0.0
2017-Feb-11 11:32N 34°32' E 135°20'0 0.0
2017-Feb-11 10:32N 34°32' E 135°20'0 0.0
2017-Feb-11 09:33N 34°32' E 135°20'0 0.0
2017-Feb-11 08:33N 34°32' E 135°20'0 0.0
2017-Feb-11 07:33N 34°32' E 135°20'0 0.0
2017-Feb-11 06:33N 34°32' E 135°20'0 0.0
2017-Feb-11 05:21N 34°32' E 135°20'0 0.0
2017-Feb-11 04:26N 34°32' E 135°20'0 0.0
2017-Feb-11 03:29N 34°32' E 135°20'4 1.1
2017-Feb-10 23:20N 34°34' E 135°25'  
Track history (hours):
 
Tides and Currents Weather Stations Pressure Air Temp Water Temp Dewpoint Dewpoint Depression Visibility Wind Speed Wind Dir Waves Ship Positions

Eikamaru No.2

Last reported at 2017-Feb-20 23:16 UTC. Time now 2017-Feb-21 01:17 UTC.
Position N 35°33' E 140°05'.

Length 60 m; draft 3.3 m.

Type: Tanker. MMSI: 431001342.

Date/timePositionNaut miles runAvg speedWind from/ knotsBaromVisibWave heightAir tempDewpointWater temp
2017-Feb-20 23:16N 35°33' E 140°05'3 0.3
2017-Feb-20 15:26N 35°33' E 140°02'0 0.0
2017-Feb-20 12:33N 35°33' E 140°02'0 0.0
2017-Feb-20 10:30N 35°33' E 140°02'1 0.2
2017-Feb-20 06:31N 35°33' E 140°01'1011.0
2017-Feb-20 05:34N 35°30' E 139°48'3 2.6
2017-Feb-20 04:33N 35°32' E 139°46'0 0.0
2017-Feb-20 03:33N 35°32' E 139°46'0 0.0
2017-Feb-20 02:33N 35°32' E 139°46'0 0.0
2017-Feb-20 01:34N 35°32' E 139°46'0 0.0
2017-Feb-20 00:33N 35°32' E 139°46'2 1.6
2017-Feb-19 23:33N 35°30' E 139°47'3 2.8
2017-Feb-19 22:34N 35°30' E 139°50'0 0.0
2017-Feb-19 21:33N 35°30' E 139°50'0 0.1
2017-Feb-19 20:33N 35°30' E 139°50'0 0.0
2017-Feb-19 19:33N 35°30' E 139°50'0 0.0
2017-Feb-19 18:33N 35°30' E 139°50'0 0.0
2017-Feb-19 17:33N 35°30' E 139°50'0 0.1
2017-Feb-19 16:33N 35°30' E 139°50'0 0.0
2017-Feb-19 15:34N 35°30' E 139°50'0 0.1
2017-Feb-19 14:33N 35°30' E 139°50'0 0.1
2017-Feb-19 13:34N 35°30' E 139°50'0 0.0
2017-Feb-19 12:34N 35°30' E 139°50'0 0.0
2017-Feb-19 11:34N 35°30' E 139°50'0 0.0
2017-Feb-19 10:34N 35°30' E 139°50'0 0.0
2017-Feb-19 09:34N 35°30' E 139°50'0 0.0
2017-Feb-19 08:33N 35°30' E 139°50'0 0.1
2017-Feb-19 07:33N 35°30' E 139°50'0 0.0
2017-Feb-19 06:34N 35°30' E 139°50'0 0.0
2017-Feb-19 05:34N 35°30' E 139°50'0 0.0
2017-Feb-19 04:33N 35°30' E 139°50'7 7.2
2017-Feb-19 03:32N 35°27' E 139°58'0 0.0
2017-Feb-19 02:33N 35°27' E 139°58'6 6.3
2017-Feb-19 01:32N 35°30' E 139°51'5 5.4
2017-Feb-19 00:33N 35°32' E 139°45'0 0.0
2017-Feb-18 23:34N 35°32' E 139°45'1 1.2
2017-Feb-18 22:33N 35°31' E 139°46'6 5.8
2017-Feb-18 21:34N 35°27' E 139°40'0 0.5
2017-Feb-18 20:34N 35°27' E 139°40'0 0.0
2017-Feb-18 19:34N 35°27' E 139°40'0 0.0
2017-Feb-18 18:33N 35°27' E 139°40'0 0.0
2017-Feb-18 17:33N 35°27' E 139°40'0 0.0
2017-Feb-18 16:34N 35°27' E 139°40'0 0.0
2017-Feb-18 15:34N 35°27' E 139°40'0 0.0
2017-Feb-18 14:34N 35°27' E 139°40'0 0.0
2017-Feb-18 13:34N 35°27' E 139°40'0 0.0
2017-Feb-18 12:34N 35°27' E 139°40'0 0.0
2017-Feb-18 11:33N 35°27' E 139°40'0 0.0
2017-Feb-18 10:33N 35°27' E 139°40'0 0.0
2017-Feb-18 09:34N 35°27' E 139°40'0 0.0
2017-Feb-18 08:33N 35°27' E 139°40'0 0.0
2017-Feb-18 07:34N 35°27' E 139°40'0 0.0
2017-Feb-18 06:34N 35°27' E 139°40'0 0.0
2017-Feb-18 05:34N 35°27' E 139°40'0 0.0
2017-Feb-18 04:33N 35°27' E 139°40'7 6.6
2017-Feb-18 03:34N 35°28' E 139°48'6 5.6
2017-Feb-18 02:33N 35°28' E 139°55'0 0.0
2017-Feb-18 01:27N 35°28' E 139°55'0 0.0
2017-Feb-18 00:33N 35°28' E 139°55'0 0.0
2017-Feb-17 23:34N 35°28' E 139°55'0 0.0
2017-Feb-17 22:33N 35°28' E 139°55'0 0.0
2017-Feb-17 21:34N 35°28' E 139°55'0 0.0
2017-Feb-17 20:33N 35°28' E 139°55'0 0.0
2017-Feb-17 19:33N 35°28' E 139°55'0 0.0
2017-Feb-17 18:33N 35°28' E 139°55'0 0.0
2017-Feb-17 17:34N 35°28' E 139°55'0 0.0
2017-Feb-17 16:33N 35°28' E 139°55'0 0.0
2017-Feb-17 15:33N 35°28' E 139°55'0 0.0
2017-Feb-17 14:33N 35°28' E 139°55'0 0.0
2017-Feb-17 13:34N 35°28' E 139°55'0 0.0
2017-Feb-17 12:28N 35°28' E 139°55'0 0.1
2017-Feb-17 11:33N 35°28' E 139°55'0 0.0
2017-Feb-17 10:27N 35°28' E 139°55'0 0.0
2017-Feb-17 09:33N 35°28' E 139°55'0 0.0
2017-Feb-17 08:05N 35°28' E 139°55'0 0.0
2017-Feb-17 07:29N 35°28' E 139°55'0 0.0
2017-Feb-17 06:16N 35°28' E 139°55'0 0.0
2017-Feb-17 05:32N 35°28' E 139°55'0 0.0
2017-Feb-17 03:32N 35°28' E 139°55'2 1.5
2017-Feb-17 02:31N 35°30' E 139°54'7 7.8
2017-Feb-17 01:34N 35°32' E 139°45'0 0.1
2017-Feb-17 00:33N 35°32' E 139°45'0 0.0
2017-Feb-16 23:33N 35°32' E 139°45'0 0.0
2017-Feb-16 22:33N 35°32' E 139°45'4 3.8
2017-Feb-16 21:33N 35°29' E 139°49'0 0.0
2017-Feb-16 20:33N 35°29' E 139°49'0 0.0
2017-Feb-16 19:33N 35°29' E 139°49'0 0.0
2017-Feb-16 18:33N 35°29' E 139°49'0 0.0
2017-Feb-16 17:33N 35°29' E 139°49'0 0.0
2017-Feb-16 16:33N 35°29' E 139°49'0 0.0
2017-Feb-16 15:33N 35°29' E 139°49'0 0.0
2017-Feb-16 14:33N 35°29' E 139°49'0 0.0
2017-Feb-16 13:33N 35°29' E 139°49'0 0.1
2017-Feb-16 12:34N 35°29' E 139°49'0 0.0
2017-Feb-16 11:33N 35°29' E 139°49'0 0.0
2017-Feb-16 10:34N 35°29' E 139°49'0 0.0
2017-Feb-16 09:33N 35°29' E 139°49'0 0.0
2017-Feb-16 08:34N 35°29' E 139°49'0 0.0
2017-Feb-16 07:34N 35°29' E 139°49'6 5.9
2017-Feb-16 06:34N 35°24' E 139°46'1110.6
2017-Feb-16 05:34N 35°13' E 139°47'243 9.3
2017-Feb-15 03:33N 34°06' E 135°03'2310.8
2017-Feb-15 01:28N 34°28' E 135°11'1011.1
2017-Feb-15 00:33N 34°37' E 135°17'3 2.8
2017-Feb-14 23:33N 34°40' E 135°18'0 0.1
2017-Feb-14 22:33N 34°40' E 135°18'2 1.6
2017-Feb-14 21:32N 34°39' E 135°19'0 0.1
2017-Feb-14 20:33N 34°39' E 135°19'0 0.0
2017-Feb-14 19:33N 34°39' E 135°19'0 0.0
2017-Feb-14 18:33N 34°39' E 135°19'0 0.1
2017-Feb-14 17:33N 34°39' E 135°19'0 0.1
2017-Feb-14 16:33N 34°39' E 135°19'0 0.1
2017-Feb-14 15:33N 34°39' E 135°19'2 2.0
2017-Feb-14 14:33N 34°37' E 135°17'1110.7
2017-Feb-14 13:33N 34°35' E 135°05'123 3.8
2017-Feb-13 05:20N 34°05' E 132°40'910.7
2017-Feb-13 04:30N 34°03' E 132°30'7 0.7
2017-Feb-12 19:17N 34°07' E 132°23'810.6
2017-Feb-12 18:31N 34°03' E 132°31'1111.3
2017-Feb-12 17:33N 34°07' E 132°44'11810.5
2017-Feb-12 06:20N 34°37' E 135°01'6 7.5
2017-Feb-12 05:32N 34°35' E 135°08'1010.6
2017-Feb-12 04:33N 34°33' E 135°20'4 3.8
2017-Feb-12 03:32N 34°32' E 135°25'0 0.0
2017-Feb-12 02:33N 34°32' E 135°25'0 0.0
2017-Feb-12 00:32N 34°32' E 135°25'0 0.0
2017-Feb-11 23:33N 34°32' E 135°25'4 4.0
2017-Feb-11 22:30N 34°32' E 135°20'0 0.0
2017-Feb-11 21:31N 34°32' E 135°20'0 0.0
2017-Feb-11 20:34N 34°32' E 135°20'0 0.0
2017-Feb-11 19:31N 34°32' E 135°20'0 0.0
2017-Feb-11 18:33N 34°32' E 135°20'0 0.0
2017-Feb-11 17:33N 34°32' E 135°20'0 0.0
2017-Feb-11 16:32N 34°32' E 135°20'0 0.0
2017-Feb-11 15:29N 34°32' E 135°20'0 0.1
2017-Feb-11 14:32N 34°32' E 135°20'0 0.1
2017-Feb-11 13:33N 34°32' E 135°20'0 0.0
2017-Feb-11 12:23N 34°32' E 135°20'0 0.0
2017-Feb-11 11:32N 34°32' E 135°20'0 0.0
2017-Feb-11 10:32N 34°32' E 135°20'0 0.0
2017-Feb-11 09:33N 34°32' E 135°20'0 0.0
2017-Feb-11 08:33N 34°32' E 135°20'0 0.0
2017-Feb-11 07:33N 34°32' E 135°20'0 0.0
2017-Feb-11 06:33N 34°32' E 135°20'0 0.0
2017-Feb-11 05:21N 34°32' E 135°20'0 0.0
2017-Feb-11 04:26N 34°32' E 135°20'0 0.0
2017-Feb-11 03:29N 34°32' E 135°20'4 1.1
2017-Feb-10 23:20N 34°34' E 135°25'  

Dump ship's entire track history